sensor_id;sensor_type;location;lat;lon;timestamp;pressure;altitude;pressure_sealevel;temperature;humidity
31088;BME280;17745;55.914;37.554;2023-03-04T03:53:40;97178.56;;;0.95;58.29
31088;BME280;17745;55.914;37.554;2023-03-04T03:56:37;97176.91;;;0.89;58.42
31088;BME280;17745;55.914;37.554;2023-03-04T03:59:35;97176.69;;;0.90;58.29
31088;BME280;17745;55.914;37.554;2023-03-04T04:02:31;97171.69;;;0.89;58.45
31088;BME280;17745;55.914;37.554;2023-03-04T04:05:31;97170.59;;;0.84;58.32
31088;BME280;17745;55.914;37.554;2023-03-04T04:08:36;97161.53;;;0.87;58.24
31088;BME280;17745;55.914;37.554;2023-03-04T04:11:50;97156.38;;;0.92;58.23
31088;BME280;17745;55.914;37.554;2023-03-04T04:15:35;97141.78;;;0.91;58.35
31088;BME280;17745;55.914;37.554;2023-03-04T07:41:27;96976.31;;;6.43;53.76
31088;BME280;17745;55.914;37.554;2023-03-04T07:44:31;96983.34;;;6.48;53.88
31088;BME280;17745;55.914;37.554;2023-03-04T07:47:26;96972.09;;;6.66;54.45
31088;BME280;17745;55.914;37.554;2023-03-04T07:50:12;96967.16;;;6.84;54.02
31088;BME280;17745;55.914;37.554;2023-03-04T07:53:43;96971.16;;;7.00;53.35
31088;BME280;17745;55.914;37.554;2023-03-04T08:01:26;96961.59;;;7.24;53.12
31088;BME280;17745;55.914;37.554;2023-03-04T08:08:19;96959.75;;;7.24;52.54
31088;BME280;17745;55.914;37.554;2023-03-04T08:18:21;96958.97;;;6.18;52.72
31088;BME280;17745;55.914;37.554;2023-03-04T08:21:25;96952.91;;;6.17;52.99
31088;BME280;17745;55.914;37.554;2023-03-04T10:28:10;96749.06;;;7.49;46.53
31088;BME280;17745;55.914;37.554;2023-03-04T10:42:30;96728.34;;;6.67;47.04
31088;BME280;17745;55.914;37.554;2023-03-04T17:25:32;96213.84;;;3.58;60.04
31088;BME280;17745;55.914;37.554;2023-03-04T22:00:04;96186.81;;;1.46;60.82
31088;BME280;17745;55.914;37.554;2023-03-04T22:03:00;96180.00;;;1.50;60.77
31088;BME280;17745;55.914;37.554;2023-03-04T22:06:32;96172.91;;;1.61;60.44
31088;BME280;17745;55.914;37.554;2023-03-04T22:10:20;96179.44;;;1.63;60.38
31088;BME280;17745;55.914;37.554;2023-03-04T22:13:12;96182.09;;;1.58;60.37
31088;BME280;17745;55.914;37.554;2023-03-04T22:16:12;96184.47;;;1.49;60.66
31088;BME280;17745;55.914;37.554;2023-03-04T22:18:44;96186.28;;;1.49;60.55
31088;BME280;17745;55.914;37.554;2023-03-04T22:21:17;96182.13;;;1.42;60.62
31088;BME280;17745;55.914;37.554;2023-03-04T22:24:11;96187.91;;;1.39;60.58
31088;BME280;17745;55.914;37.554;2023-03-04T22:26:46;96187.63;;;1.46;60.43
31088;BME280;17745;55.914;37.554;2023-03-04T22:29:48;96196.72;;;1.49;60.48
31088;BME280;17745;55.914;37.554;2023-03-04T22:33:00;96186.28;;;1.49;60.43
31088;BME280;17745;55.914;37.554;2023-03-04T22:36:09;96186.28;;;1.49;60.39
31088;BME280;17745;55.914;37.554;2023-03-04T22:39:02;96185.25;;;1.45;60.43
31088;BME280;17745;55.914;37.554;2023-03-04T22:42:14;96186.84;;;1.40;60.43
31088;BME280;17745;55.914;37.554;2023-03-04T22:45:12;96193.13;;;1.34;60.44
31088;BME280;17745;55.914;37.554;2023-03-04T22:48:25;96204.87;;;1.26;60.34
31088;BME280;17745;55.914;37.554;2023-03-04T22:51:12;96182.16;;;1.32;60.33
31088;BME280;17745;55.914;37.554;2023-03-04T22:53:56;96181.94;;;1.28;60.28
31088;BME280;17745;55.914;37.554;2023-03-04T22:56:39;96175.16;;;1.27;60.35
